KMEI/MEI METAR and TAF weather

Enter ICAO airport designator
Station Type Date Time Source
KMEI METAR 2020/01/20 09:58 UTC NOAA

KMEI 200958Z AUTO 36012KT 10SM CLR 00/M08 A3042 RMK AO2 SLP300 T00001083


Station Type Date Time Source
KMEI Decoded METAR 2020/01/20 09:58 UTC NOAA

MERIDIAN KEY FIELD, MS, United States (KMEI) 32-20N 088-45W 89M
Jan 20, 2020 - 04:58 AM EST / 2020.01.20 0958 UTC
Wind: from the N (360 degrees) at 14 MPH (12 KT):0
Visibility: 10 mile(s):0
Sky conditions: clear
Temperature: 32.0 F (0.0 C)
Windchill: 21 F (-6 C):1
Dew Point: 17.1 F (-8.3 C)
Relative Humidity: 53%
Pressure (altimeter): 30.42 in. Hg (1030 hPa)
ob: KMEI 200958Z AUTO 36012KT 10SM CLR 00/M08 A3042 RMK AO2 SLP300 T00001083
cycle: 10

Station Type Date Time Source
KMEI TAF 2020/01/20 06:36 UTC NOAA

TAF KMEI 200534Z 2006/2106 34012KT P6SM SKC
FM201700 36011G17KT P6SM SKC
FM202300 36009KT P6SM SKC

Example: see airport list